createdAt,value
2023-04-07T00:02:02.347Z,99861.09
2023-04-07T00:04:29.185Z,99868.06
2023-04-07T00:06:56.094Z,99864.41
2023-04-07T00:09:22.675Z,99864.50
2023-04-07T00:11:49.132Z,99863.56
2023-04-07T00:14:15.573Z,99864.50
2023-04-07T00:16:42.171Z,99866.03
2023-04-07T00:19:08.732Z,99863.31
2023-04-07T00:21:35.311Z,99865.84
2023-04-07T00:24:01.879Z,99854.41
2023-04-07T00:26:31.419Z,99857.03
2023-04-07T00:28:59.110Z,99847.44
2023-04-07T00:31:25.830Z,99850.00
2023-04-07T00:33:54.265Z,99847.44
2023-04-07T00:36:21.325Z,99834.63
2023-04-07T00:38:47.768Z,99827.50
2023-04-07T00:41:14.318Z,99831.00
2023-04-07T00:43:40.848Z,99828.00
2023-04-07T00:46:07.513Z,99820.88
2023-04-07T00:48:34.311Z,99832.00
2023-04-07T00:51:00.856Z,99823.00
2023-04-07T00:53:27.488Z,99819.19
2023-04-07T00:55:54.145Z,99819.88
2023-04-07T00:58:20.703Z,99800.44
2023-04-07T01:00:57.118Z,99807.34
2023-04-07T01:03:34.099Z,99798.63
2023-04-07T01:06:02.476Z,99809.84
2023-04-07T01:08:28.901Z,99796.09
2023-04-07T01:11:22.424Z,99793.28
2023-04-07T01:13:50.814Z,99789.81
2023-04-07T01:16:39.807Z,99783.84
2023-04-07T01:19:39.400Z,99784.88
2023-04-07T01:22:14.372Z,99783.03
2023-04-07T01:25:18.817Z,99788.00
2023-04-07T01:28:04.036Z,99786.31
2023-04-07T01:30:33.330Z,99779.19
2023-04-07T01:33:00.393Z,99774.59
2023-04-07T01:35:28.119Z,99767.88
2023-04-07T01:37:56.062Z,99776.72
2023-04-07T01:40:22.919Z,99763.81
2023-04-07T01:42:50.276Z,99774.25
2023-04-07T01:45:17.457Z,99766.66
2023-04-07T01:47:44.342Z,99772.50
2023-04-07T01:50:12.172Z,99767.03
2023-04-07T01:52:40.086Z,99764.31
2023-04-07T01:55:07.341Z,99761.44
2023-04-07T01:57:37.960Z,99763.97
2023-04-07T02:00:12.248Z,99765.47
2023-04-07T02:02:55.860Z,99750.63
2023-04-07T02:05:22.802Z,99758.25
2023-04-07T02:07:56.055Z,99752.06
2023-04-07T02:10:24.589Z,99753.69
2023-04-07T02:12:52.930Z,99757.09
2023-04-07T02:15:20.911Z,99756.31
2023-04-07T02:17:52.998Z,99747.47
2023-04-07T02:20:20.487Z,99747.63
2023-04-07T02:22:47.977Z,99747.81
2023-04-07T02:25:28.023Z,99745.09
2023-04-07T02:27:55.539Z,99752.06
2023-04-07T02:30:22.361Z,99744.06
2023-04-07T02:32:50.060Z,99737.88
2023-04-07T02:35:16.727Z,99739.59
2023-04-07T02:37:44.421Z,99739.69
2023-04-07T02:40:11.165Z,99739.59
2023-04-07T02:42:37.813Z,99733.44
2023-04-07T02:45:05.216Z,99735.25
2023-04-07T02:47:32.000Z,99729.88
2023-04-07T02:49:58.557Z,99731.50
2023-04-07T02:52:25.355Z,99725.47
2023-04-07T02:54:53.136Z,99716.81
2023-04-07T02:57:23.149Z,99720.47
2023-04-07T02:59:52.837Z,99720.47
2023-04-07T03:02:19.360Z,99713.41
2023-04-07T03:04:46.032Z,99725.53
2023-04-07T03:07:12.612Z,99722.19
2023-04-07T03:09:40.057Z,99720.38
2023-04-07T03:12:06.586Z,99711.56
2023-04-07T03:14:36.053Z,99714.84
2023-04-07T03:17:03.670Z,99723.59
2023-04-07T03:19:30.909Z,99713.81
2023-04-07T03:21:57.439Z,99719.94
2023-04-07T03:24:23.990Z,99723.13
2023-04-07T03:26:51.706Z,99715.13
2023-04-07T03:29:25.779Z,99713.38
2023-04-07T03:31:52.707Z,99716.75
2023-04-07T03:34:23.292Z,99711.47
2023-04-07T03:36:49.993Z,99715.66
2023-04-07T03:39:16.848Z,99712.06
2023-04-07T03:41:44.211Z,99717.25
2023-04-07T03:44:11.391Z,99711.13
2023-04-07T03:46:38.465Z,99710.28
2023-04-07T03:49:06.648Z,99706.03
2023-04-07T03:51:34.038Z,99707.66
2023-04-07T03:54:02.850Z,99701.72
2023-04-07T03:56:33.875Z,99706.88
2023-04-07T03:59:00.615Z,99703.56
2023-04-07T04:01:34.599Z,99699.84
2023-04-07T04:04:07.842Z,99707.44
2023-04-07T04:06:34.945Z,99707.56
2023-04-07T04:09:11.031Z,99696.34
2023-04-07T04:11:43.832Z,99705.03
2023-04-07T04:14:10.265Z,99705.84
2023-04-07T04:16:37.578Z,99695.50
2023-04-07T04:19:10.897Z,99699.19
2023-04-07T04:21:37.417Z,99708.78
2023-04-07T04:24:04.734Z,99702.66
2023-04-07T04:26:31.581Z,99705.19
2023-04-07T04:29:04.202Z,99702.84
2023-04-07T04:31:30.870Z,99704.34
2023-04-07T04:33:58.341Z,99708.47
2023-04-07T04:36:25.020Z,99704.91
2023-04-07T04:38:56.372Z,99705.03
2023-04-07T04:41:23.461Z,99709.34
2023-04-07T04:43:51.038Z,99716.84
2023-04-07T04:46:21.944Z,99711.03
2023-04-07T04:48:49.583Z,99716.28
2023-04-07T04:51:17.518Z,99713.66
2023-04-07T04:53:47.915Z,99711.13
2023-04-07T04:56:14.536Z,99711.13
2023-04-07T04:58:46.752Z,99710.94
2023-04-07T05:01:38.314Z,99708.22
2023-04-07T05:04:10.488Z,99709.72
2023-04-07T05:06:40.478Z,99713.97
2023-04-07T05:09:11.044Z,99721.75
2023-04-07T05:11:43.808Z,99720.94
2023-04-07T05:14:10.844Z,99728.16
2023-04-07T05:16:42.360Z,99718.41
2023-04-07T05:19:15.313Z,99720.09
2023-04-07T05:21:41.998Z,99715.56
2023-04-07T05:24:09.617Z,99715.47
2023-04-07T05:26:36.940Z,99724.97
2023-04-07T05:29:04.974Z,99726.78
2023-04-07T05:31:31.581Z,99723.09
2023-04-07T05:33:59.855Z,99722.91
2023-04-07T05:36:31.684Z,99717.84
2023-04-07T05:38:58.213Z,99721.25
2023-04-07T05:41:26.946Z,99717.75
2023-04-07T05:43:54.793Z,99716.72
2023-04-07T05:46:22.822Z,99720.84
2023-04-07T05:48:56.403Z,99723.41
2023-04-07T05:51:24.774Z,99724.91
2023-04-07T05:53:53.417Z,99727.25
2023-04-07T05:56:22.920Z,99725.22
2023-04-07T05:58:49.337Z,99726.03
2023-04-07T06:01:16.828Z,99727.84
2023-04-07T06:03:43.408Z,99728.97
2023-04-07T06:06:16.767Z,99730.38
2023-04-07T06:08:45.337Z,99727.47
2023-04-07T06:11:12.690Z,99723.97
2023-04-07T06:13:39.134Z,99724.63
2023-04-07T06:16:06.500Z,99727.25
2023-04-07T06:18:32.980Z,99732.44
2023-04-07T06:20:59.387Z,99731.50
2023-04-07T06:23:26.159Z,99713.81
2023-04-07T06:25:53.168Z,99724.34
2023-04-07T06:28:19.764Z,99724.25
2023-04-07T06:30:46.813Z,99720.56
2023-04-07T06:33:14.725Z,99724.69
2023-04-07T06:35:41.346Z,99724.31
2023-04-07T06:38:08.080Z,99720.63
2023-04-07T06:40:34.494Z,99721.31
2023-04-07T06:43:01.270Z,99726.09
2023-04-07T06:45:37.092Z,99724.00
2023-04-07T06:48:03.651Z,99729.09
2023-04-07T06:50:30.165Z,99728.06
2023-04-07T06:52:56.652Z,99733.16
2023-04-07T06:55:23.108Z,99729.47
2023-04-07T06:57:52.179Z,99728.03
2023-04-07T07:00:19.012Z,99727.53
2023-04-07T07:02:45.706Z,99728.28
2023-04-07T07:05:12.746Z,99734.53
2023-04-07T07:07:39.166Z,99732.50
2023-04-07T07:10:06.796Z,99732.44
2023-04-07T07:12:33.419Z,99734.75
2023-04-07T07:14:59.811Z,99740.69
2023-04-07T07:17:26.496Z,99738.16
2023-04-07T07:19:53.000Z,99742.28
2023-04-07T07:22:19.524Z,99743.03
2023-04-07T07:24:45.964Z,99749.53
2023-04-07T07:27:12.366Z,99745.97
2023-04-07T07:29:38.790Z,99754.94
2023-04-07T07:32:05.612Z,99756.09
2023-04-07T07:34:32.713Z,99758.50
2023-04-07T07:36:59.829Z,99758.50
2023-04-07T07:39:26.787Z,99756.09
2023-04-07T07:41:53.252Z,99764.00
2023-04-07T07:44:23.631Z,99757.13
2023-04-07T07:46:51.373Z,99759.88
2023-04-07T07:49:17.925Z,99762.69
2023-04-07T07:51:46.070Z,99767.31
2023-04-07T07:54:12.780Z,99766.59
2023-04-07T07:56:39.235Z,99767.78
2023-04-07T07:59:08.540Z,99774.06
2023-04-07T08:01:35.066Z,99777.34
2023-04-07T08:04:01.613Z,99771.97
2023-04-07T08:06:29.187Z,99774.63
2023-04-07T08:08:55.856Z,99781.50
2023-04-07T08:11:23.033Z,99768.19
2023-04-07T08:13:49.785Z,99773.25
2023-04-07T08:16:16.643Z,99778.91
2023-04-07T08:18:43.168Z,99770.56
2023-04-07T08:21:09.665Z,99772.06
2023-04-07T08:23:36.315Z,99779.88
2023-04-07T08:26:02.751Z,99777.22
2023-04-07T08:28:29.224Z,99779.75
2023-04-07T08:30:55.685Z,99779.75
2023-04-07T08:33:22.222Z,99776.28
2023-04-07T08:35:48.795Z,99784.88
2023-04-07T08:38:15.371Z,99780.94
2023-04-07T08:40:42.733Z,99778.84
2023-04-07T08:43:10.305Z,99784.91
2023-04-07T08:45:39.709Z,99785.84
2023-04-07T08:48:17.751Z,99784.53
2023-04-07T08:50:45.650Z,99790.59
2023-04-07T08:53:14.684Z,99789.34
2023-04-07T08:55:41.917Z,99798.09
2023-04-07T08:58:12.330Z,99794.06
2023-04-07T09:00:45.771Z,99802.31
2023-04-07T09:03:12.386Z,99799.44
2023-04-07T09:05:39.030Z,99803.50
2023-04-07T09:08:05.577Z,99803.94
2023-04-07T09:10:32.217Z,99802.66
2023-04-07T09:12:59.499Z,99809.34
2023-04-07T09:15:31.042Z,99811.78
2023-04-07T09:17:58.505Z,99812.94
2023-04-07T09:20:25.650Z,99813.88
2023-04-07T09:22:52.144Z,99822.31
2023-04-07T09:25:22.625Z,99824.22
2023-04-07T09:27:59.625Z,99821.66
2023-04-07T09:30:27.289Z,99813.22
2023-04-07T09:32:54.125Z,99818.00
2023-04-07T09:35:23.029Z,99823.00
2023-04-07T09:38:06.871Z,99822.47
2023-04-07T09:40:33.878Z,99818.78
2023-04-07T09:43:00.545Z,99821.03
2023-04-07T09:45:34.594Z,99812.91
2023-04-07T09:48:10.782Z,99813.72
2023-04-07T09:50:40.005Z,99816.25
2023-04-07T09:53:06.993Z,99815.50
2023-04-07T09:55:33.885Z,99819.50
2023-04-07T09:58:00.842Z,99814.28
2023-04-07T10:00:27.356Z,99804.41
2023-04-07T10:02:54.238Z,99808.59
2023-04-07T10:05:23.582Z,99813.94
2023-04-07T10:07:49.987Z,99809.53
2023-04-07T10:10:16.593Z,99811.97
2023-04-07T10:12:43.233Z,99817.28
2023-04-07T10:15:13.226Z,99815.16
2023-04-07T10:17:40.937Z,99806.44
2023-04-07T10:20:08.435Z,99816.53
2023-04-07T10:22:36.018Z,99827.97
2023-04-07T10:25:07.152Z,99814.56
2023-04-07T10:27:56.527Z,99823.91
2023-04-07T10:30:31.604Z,99820.88
2023-04-07T10:32:58.809Z,99825.88
2023-04-07T10:35:25.834Z,99827.06
2023-04-07T10:38:08.033Z,99822.00
2023-04-07T10:40:35.579Z,99830.09
2023-04-07T10:43:02.438Z,99825.09
2023-04-07T10:45:48.296Z,99830.28
2023-04-07T10:48:16.472Z,99832.31
2023-04-07T10:50:42.946Z,99833.38
2023-04-07T10:53:10.526Z,99829.53
2023-04-07T10:55:46.617Z,99835.19
2023-04-07T10:58:16.851Z,99839.03
2023-04-07T11:01:03.557Z,99832.59
2023-04-07T11:03:34.886Z,99828.69
2023-04-07T11:06:05.092Z,99841.41
2023-04-07T11:08:36.242Z,99839.00
2023-04-07T11:11:08.893Z,99840.06
2023-04-07T11:13:48.886Z,99837.84
2023-04-07T11:16:20.103Z,99846.97
2023-04-07T11:18:47.858Z,99846.44
2023-04-07T11:21:19.123Z,99845.91
2023-04-07T11:23:47.498Z,99837.44
2023-04-07T11:26:15.929Z,99839.00
2023-04-07T11:28:47.227Z,99840.41
2023-04-07T11:31:22.022Z,99846.22
2023-04-07T11:33:53.720Z,99845.47
2023-04-07T11:36:30.845Z,99853.28
2023-04-07T11:39:00.573Z,99854.34
2023-04-07T11:41:30.334Z,99856.69
2023-04-07T11:44:12.746Z,99853.28
2023-04-07T11:46:59.770Z,99851.84
2023-04-07T11:49:31.702Z,99862.00
2023-04-07T11:52:00.739Z,99864.00
2023-04-07T11:54:27.210Z,99864.44
2023-04-07T11:56:55.806Z,99869.38
2023-04-07T11:59:24.326Z,99869.38
2023-04-07T12:01:53.002Z,99868.19
2023-04-07T12:04:20.976Z,99865.34
2023-04-07T12:06:48.502Z,99870.03
2023-04-07T12:09:32.441Z,99866.06
2023-04-07T12:11:59.252Z,99864.06
2023-04-07T12:14:27.705Z,99869.34
2023-04-07T12:16:57.505Z,99877.41
2023-04-07T12:19:26.629Z,99872.25
2023-04-07T12:21:53.106Z,99875.94
2023-04-07T12:24:19.632Z,99878.72
2023-04-07T12:26:46.119Z,99882.50
2023-04-07T12:29:12.585Z,99884.63
2023-04-07T12:31:39.050Z,99883.06
2023-04-07T12:34:05.595Z,99882.53
2023-04-07T12:36:32.151Z,99880.94
2023-04-07T12:38:59.017Z,99889.53
2023-04-07T12:41:25.780Z,99886.44
2023-04-07T12:43:52.687Z,99885.16
2023-04-07T12:46:19.837Z,99891.09
2023-04-07T12:48:47.750Z,99883.78
2023-04-07T12:51:14.220Z,99888.66
2023-04-07T12:53:40.654Z,99888.66
2023-04-07T12:56:07.312Z,99884.69
2023-04-07T12:58:34.315Z,99894.34
2023-04-07T13:01:00.796Z,99895.09
2023-04-07T13:03:27.589Z,99890.44
2023-04-07T13:05:55.255Z,99898.03
2023-04-07T13:08:22.031Z,99884.56
2023-04-07T13:10:48.672Z,99895.72
2023-04-07T13:13:15.473Z,99897.91
2023-04-07T13:15:41.957Z,99891.00
2023-04-07T13:18:08.529Z,99898.06
2023-04-07T13:20:34.975Z,99890.19
2023-04-07T13:23:07.829Z,99885.72
2023-04-07T13:25:36.446Z,99897.25
2023-04-07T13:28:03.184Z,99887.75
2023-04-07T13:30:29.651Z,99887.28
2023-04-07T13:32:56.172Z,99888.03
2023-04-07T13:35:23.852Z,99881.25
2023-04-07T13:37:50.289Z,99885.00
2023-04-07T13:40:16.729Z,99887.41
2023-04-07T13:42:43.396Z,99887.63
2023-04-07T13:45:09.974Z,99888.09
2023-04-07T13:47:36.719Z,99887.03
2023-04-07T13:50:03.987Z,99884.59
2023-04-07T13:52:32.767Z,99880.97
2023-04-07T13:54:59.257Z,99890.13
2023-04-07T13:57:25.844Z,99886.13
2023-04-07T13:59:55.694Z,99886.91
2023-04-07T14:02:22.750Z,99888.09
2023-04-07T14:04:49.269Z,99884.81
2023-04-07T14:07:16.244Z,99893.16
2023-04-07T14:09:42.851Z,99889.28
2023-04-07T14:12:09.460Z,99897.66
2023-04-07T14:14:37.523Z,99897.28
2023-04-07T14:17:04.303Z,99895.78
2023-04-07T14:19:30.819Z,99891.53
2023-04-07T14:21:57.281Z,99894.09
2023-04-07T14:24:23.872Z,99898.88
2023-04-07T14:26:51.082Z,99903.66
2023-04-07T14:29:17.730Z,99899.44
2023-04-07T14:31:45.126Z,99893.22
2023-04-07T14:34:11.821Z,99897.25
2023-04-07T14:36:38.362Z,99895.44
2023-04-07T14:39:04.786Z,99898.94
2023-04-07T14:41:31.510Z,99895.34
2023-04-07T14:43:58.477Z,99903.00
2023-04-07T14:46:27.378Z,99903.28
2023-04-07T14:51:21.907Z,99901.78
2023-04-07T14:53:53.389Z,99906.75
2023-04-07T14:56:21.234Z,99905.66
2023-04-07T14:58:47.659Z,99907.47
2023-04-07T15:01:14.085Z,99906.19
2023-04-07T15:03:40.650Z,99910.53
2023-04-07T15:06:08.681Z,99910.97
2023-04-07T15:08:35.550Z,99905.50
2023-04-07T15:11:05.649Z,99915.84
2023-04-07T15:13:32.108Z,99920.91
2023-04-07T15:16:11.891Z,99913.63
2023-04-07T15:18:40.794Z,99918.50
2023-04-07T15:21:08.776Z,99917.56
2023-04-07T15:23:37.709Z,99915.69
2023-04-07T15:26:05.530Z,99914.28
2023-04-07T15:28:32.012Z,99914.16
2023-04-07T15:30:59.254Z,99911.44
2023-04-07T15:33:25.848Z,99908.59
2023-04-07T15:35:52.306Z,99907.31
2023-04-07T15:38:19.105Z,99913.03
2023-04-07T15:40:46.109Z,99903.94
2023-04-07T15:43:12.582Z,99918.22
2023-04-07T15:45:43.174Z,99909.44
2023-04-07T15:48:10.605Z,99916.47
2023-04-07T15:50:37.294Z,99918.06
2023-04-07T15:53:07.171Z,99916.41
2023-04-07T15:55:34.244Z,99918.81
2023-04-07T15:58:01.724Z,99925.06
2023-04-07T16:00:29.623Z,99916.16
2023-04-07T16:02:56.213Z,99925.47
2023-04-07T16:05:22.814Z,99918.69
2023-04-07T16:07:49.217Z,99919.13
2023-04-07T16:10:19.479Z,99923.38
2023-04-07T16:12:46.699Z,99926.88
2023-04-07T16:15:13.458Z,99923.38
2023-04-07T16:17:42.691Z,99925.06
2023-04-07T16:20:14.555Z,99929.53
2023-04-07T16:22:42.207Z,99929.66
2023-04-07T16:25:09.241Z,99931.75
2023-04-07T16:27:36.247Z,99928.56
2023-04-07T16:30:05.374Z,99936.34
2023-04-07T16:32:32.670Z,99929.75
2023-04-07T16:34:59.197Z,99935.47
2023-04-07T16:37:26.136Z,99943.75
2023-04-07T16:39:59.026Z,99938.75
2023-04-07T16:42:29.002Z,99947.88
2023-04-07T16:44:57.580Z,99947.53
2023-04-07T16:47:25.689Z,99944.03
2023-04-07T16:49:52.113Z,99949.44
2023-04-07T16:52:20.564Z,99953.84
2023-04-07T16:54:47.251Z,99949.44
2023-04-07T16:57:13.727Z,99962.97
2023-04-07T16:59:40.702Z,99966.13
2023-04-07T17:02:12.579Z,99962.72
2023-04-07T17:04:39.995Z,99960.94
2023-04-07T17:07:06.831Z,99974.34
2023-04-07T17:09:33.403Z,99970.44
2023-04-07T17:12:01.093Z,99976.47
2023-04-07T17:14:28.592Z,99977.31
2023-04-07T17:16:54.991Z,99984.41
2023-04-07T17:19:21.682Z,99984.63
2023-04-07T17:21:48.219Z,99989.91
2023-04-07T17:24:15.800Z,100001.53
2023-04-07T17:26:48.824Z,99994.53
2023-04-07T17:29:16.501Z,100001.44
2023-04-07T17:31:43.023Z,100003.25
2023-04-07T17:34:10.233Z,100008.81
2023-04-07T17:36:37.596Z,100009.03
2023-04-07T17:39:04.923Z,100017.81
2023-04-07T17:41:34.321Z,100008.09
2023-04-07T17:44:01.134Z,100018.84
2023-04-07T17:46:27.689Z,100022.66
2023-04-07T17:48:54.945Z,100029.00
2023-04-07T17:51:21.414Z,100021.91
2023-04-07T17:53:48.621Z,100027.41
2023-04-07T17:56:15.374Z,100035.63
2023-04-07T17:58:41.842Z,100034.13
2023-04-07T18:01:11.490Z,100036.97
2023-04-07T18:03:38.196Z,100036.75
2023-04-07T18:06:05.058Z,100034.97
2023-04-07T18:08:31.611Z,100044.59
2023-04-07T18:10:58.059Z,100046.94
2023-04-07T18:13:24.500Z,100047.69
2023-04-07T18:15:51.026Z,100053.72
2023-04-07T18:18:17.515Z,100053.06
2023-04-07T18:20:43.993Z,100058.38
2023-04-07T18:23:10.600Z,100057.44
2023-04-07T18:25:37.127Z,100064.53
2023-04-07T18:28:03.956Z,100064.41
2023-04-07T18:30:30.499Z,100062.81
2023-04-07T18:32:57.022Z,100072.75
2023-04-07T18:35:23.569Z,100073.03
2023-04-07T18:37:50.298Z,100069.00
2023-04-07T18:40:16.748Z,100082.69
2023-04-07T18:42:43.544Z,100088.47
2023-04-07T18:45:10.301Z,100093.09
2023-04-07T18:47:36.950Z,100094.13
2023-04-07T18:50:04.950Z,100094.13
2023-04-07T18:52:31.980Z,100099.50
2023-04-07T18:54:58.881Z,100089.88
2023-04-07T18:57:25.286Z,100098.75
2023-04-07T18:59:52.780Z,100102.25
2023-04-07T19:02:19.444Z,100108.59
2023-04-07T19:04:45.994Z,100101.50
2023-04-07T19:07:12.438Z,100110.25
2023-04-07T19:09:39.768Z,100109.41
2023-04-07T19:12:06.507Z,100112.91
2023-04-07T19:14:33.029Z,100119.06
2023-04-07T19:16:59.552Z,100118.13
2023-04-07T19:19:26.365Z,100116.41
2023-04-07T19:21:52.830Z,100118.00
2023-04-07T19:24:19.323Z,100122.44
2023-04-07T19:26:45.885Z,100126.97
2023-04-07T19:29:12.429Z,100129.72
2023-04-07T19:31:39.442Z,100129.78
2023-04-07T19:34:06.216Z,100136.88
2023-04-07T19:36:33.750Z,100134.34
2023-04-07T19:39:00.249Z,100134.34
2023-04-07T19:41:26.725Z,100137.91
2023-04-07T19:43:53.343Z,100137.91
2023-04-07T19:46:19.939Z,100133.47
2023-04-07T19:48:46.802Z,100150.09
2023-04-07T19:51:13.484Z,100144.72
2023-04-07T19:53:39.972Z,100149.16
2023-04-07T19:56:06.423Z,100143.78
2023-04-07T19:58:34.216Z,100151.69
2023-04-07T20:01:00.879Z,100149.06
2023-04-07T20:03:27.541Z,100155.28
2023-04-07T20:05:55.253Z,100153.78
2023-04-07T20:08:21.723Z,100153.88
2023-04-07T20:10:51.238Z,100150.28
2023-04-07T20:13:18.679Z,100153.88
2023-04-07T20:15:46.293Z,100161.22
2023-04-07T20:18:12.973Z,100158.84
2023-04-07T20:20:39.641Z,100168.59
2023-04-07T20:23:06.416Z,100168.59
